createdAt,value
2023-05-02T00:02:03.063Z,8.67
2023-05-02T00:04:47.964Z,8.69
2023-05-02T00:07:33.071Z,8.76
2023-05-02T00:10:17.971Z,8.79
2023-05-02T00:13:03.056Z,8.81
2023-05-02T00:15:48.042Z,8.82
2023-05-02T00:18:33.084Z,8.80
2023-05-02T00:21:18.101Z,8.82
2023-05-02T00:24:03.114Z,8.84
2023-05-02T00:26:48.126Z,8.83
2023-05-02T00:29:33.026Z,8.77
2023-05-02T00:32:18.120Z,8.72
2023-05-02T00:35:03.123Z,8.75
2023-05-02T00:37:48.065Z,8.81
2023-05-02T00:40:33.052Z,8.83
2023-05-02T00:43:18.103Z,8.85
2023-05-02T00:46:03.129Z,8.88
2023-05-02T00:48:48.223Z,8.96
2023-05-02T00:51:33.333Z,8.90
2023-05-02T00:54:18.233Z,8.83
2023-05-02T00:57:03.273Z,8.84
2023-05-02T00:59:48.183Z,8.86
2023-05-02T01:02:33.329Z,8.88
2023-05-02T01:05:18.059Z,8.89
2023-05-02T01:08:03.088Z,8.95
2023-05-02T01:10:48.146Z,9.02
2023-05-02T01:13:33.090Z,9.05
2023-05-02T01:16:18.211Z,9.03
2023-05-02T01:19:03.046Z,9.02
2023-05-02T01:21:48.164Z,8.98
2023-05-02T01:24:33.102Z,8.98
2023-05-02T01:27:18.237Z,9.04
2023-05-02T01:30:03.208Z,9.01
2023-05-02T01:32:48.196Z,8.99
2023-05-02T01:35:33.305Z,8.95
2023-05-02T01:38:18.378Z,8.89
2023-05-02T01:41:03.423Z,8.79
2023-05-02T01:43:48.345Z,8.70
2023-05-02T01:46:33.511Z,8.71
2023-05-02T01:49:18.332Z,8.63
2023-05-02T01:52:03.432Z,8.60
2023-05-02T01:54:48.300Z,8.63
2023-05-02T01:57:33.245Z,8.61
2023-05-02T02:00:18.408Z,8.60
2023-05-02T02:03:03.354Z,8.56
2023-05-02T02:05:48.439Z,8.58
2023-05-02T02:08:33.471Z,8.60
2023-05-02T02:11:18.486Z,8.65
2023-05-02T02:14:03.542Z,8.71
2023-05-02T02:16:48.688Z,8.79
2023-05-02T02:19:33.631Z,8.78
2023-05-02T02:22:18.600Z,8.73
2023-05-02T02:25:03.784Z,8.60
2023-05-02T02:27:48.753Z,8.41
2023-05-02T02:30:33.847Z,8.31
2023-05-02T02:33:18.749Z,8.27
2023-05-02T02:36:03.832Z,8.28
2023-05-02T02:38:48.760Z,8.29
2023-05-02T02:41:33.737Z,8.29
2023-05-02T02:44:18.857Z,8.32
2023-05-02T02:47:03.956Z,8.34
2023-05-02T02:49:49.041Z,8.34
2023-05-02T02:52:33.991Z,8.36
2023-05-02T02:55:19.083Z,8.37
2023-05-02T02:58:03.979Z,8.38
2023-05-02T03:00:49.048Z,8.44
2023-05-02T03:03:34.105Z,8.48
2023-05-02T03:06:19.073Z,8.56
2023-05-02T03:09:04.125Z,8.61
2023-05-02T03:11:49.135Z,8.61
2023-05-02T03:14:34.229Z,8.60
2023-05-02T03:17:19.123Z,8.58
2023-05-02T03:20:04.134Z,8.54
2023-05-02T03:22:49.102Z,8.55
2023-05-02T03:25:34.180Z,8.54
2023-05-02T03:28:19.281Z,8.56
2023-05-02T03:31:04.264Z,8.52
2023-05-02T03:33:49.395Z,8.52
2023-05-02T03:36:34.047Z,8.53
2023-05-02T03:39:19.245Z,8.44
2023-05-02T03:42:04.066Z,8.46
2023-05-02T03:44:49.233Z,8.47
2023-05-02T03:47:34.149Z,8.39
2023-05-02T03:50:18.907Z,8.40
2023-05-02T03:53:04.000Z,8.35
2023-05-02T03:55:48.990Z,8.21
2023-05-02T03:58:34.036Z,8.17
2023-05-02T04:01:19.003Z,8.18
2023-05-02T04:04:04.060Z,8.17
2023-05-02T04:06:49.151Z,8.15
2023-05-02T04:09:34.092Z,8.18
2023-05-02T04:12:19.003Z,8.18
2023-05-02T04:15:03.888Z,8.18
2023-05-02T04:17:48.977Z,8.21
2023-05-02T04:20:33.972Z,8.23
2023-05-02T04:23:19.141Z,8.27
2023-05-02T04:26:04.011Z,8.29
2023-05-02T04:28:49.251Z,8.33
2023-05-02T04:31:34.349Z,8.36
2023-05-02T04:34:19.322Z,8.37
2023-05-02T04:37:04.499Z,8.39
2023-05-02T04:39:49.261Z,8.43
2023-05-02T04:42:34.372Z,8.51
2023-05-02T04:45:19.362Z,8.55
2023-05-02T04:48:04.355Z,8.59
2023-05-02T04:50:50.364Z,8.64
2023-05-02T04:53:35.129Z,8.66
2023-05-02T04:56:20.159Z,8.71
2023-05-02T04:59:05.092Z,8.71
2023-05-02T05:01:50.331Z,8.72
2023-05-02T05:04:35.034Z,8.74
2023-05-02T05:07:20.226Z,8.80
2023-05-02T05:10:05.260Z,8.90
2023-05-02T05:12:50.346Z,8.90
2023-05-02T05:15:35.424Z,8.90
2023-05-02T05:18:20.350Z,8.89
2023-05-02T05:21:05.470Z,8.96
2023-05-02T05:23:50.359Z,8.95
2023-05-02T05:26:35.524Z,8.93
2023-05-02T05:29:20.509Z,8.88
2023-05-02T05:32:05.591Z,8.79
2023-05-02T05:34:50.482Z,8.69
2023-05-02T05:37:35.624Z,8.64
2023-05-02T05:40:20.753Z,8.52
2023-05-02T05:43:05.735Z,8.34
2023-05-02T05:45:50.828Z,8.33
2023-05-02T05:48:35.710Z,8.38
2023-05-02T05:51:20.859Z,8.42
2023-05-02T05:54:05.856Z,8.55
2023-05-02T05:56:50.941Z,8.74
2023-05-02T05:59:35.861Z,8.99
2023-05-02T06:02:20.828Z,9.24
2023-05-02T06:05:05.890Z,9.55
2023-05-02T06:07:50.893Z,9.80
2023-05-02T06:10:35.889Z,9.99
2023-05-02T06:13:20.863Z,10.11
2023-05-02T06:16:06.123Z,10.26
2023-05-02T06:18:51.037Z,10.37
2023-05-02T06:21:36.076Z,10.50
2023-05-02T06:24:21.017Z,10.60
2023-05-02T06:27:05.907Z,10.64
2023-05-02T06:29:51.153Z,10.90
2023-05-02T06:32:36.076Z,13.57
2023-05-02T06:35:21.186Z,17.32
2023-05-02T06:38:06.167Z,16.98
2023-05-02T06:40:51.187Z,15.92
2023-05-02T06:43:36.157Z,15.07
2023-05-02T06:46:21.363Z,14.76
2023-05-02T06:49:06.220Z,17.97
2023-05-02T06:51:51.047Z,16.69
2023-05-02T06:54:36.252Z,14.89
2023-05-02T06:57:21.080Z,14.50
2023-05-02T07:00:06.111Z,14.68
2023-05-02T07:02:51.013Z,13.52
2023-05-02T07:05:35.992Z,14.56
2023-05-02T07:08:20.892Z,14.48
2023-05-02T07:11:05.938Z,14.45
2023-05-02T07:13:50.884Z,14.32
2023-05-02T07:16:35.986Z,13.70
2023-05-02T07:19:21.091Z,13.97
2023-05-02T07:22:05.971Z,13.63
2023-05-02T07:24:51.169Z,13.91
2023-05-02T07:27:36.122Z,13.67
2023-05-02T07:30:21.198Z,13.66
2023-05-02T07:33:06.270Z,13.74
2023-05-02T07:35:51.128Z,13.82
2023-05-02T07:38:36.394Z,13.67
2023-05-02T07:41:21.384Z,13.74
2023-05-02T07:44:06.577Z,13.93
2023-05-02T07:46:51.543Z,13.44
2023-05-02T07:49:36.712Z,13.20
2023-05-02T07:52:21.718Z,13.48
2023-05-02T07:55:06.748Z,13.70
2023-05-02T07:57:51.900Z,13.78
2023-05-02T08:00:36.908Z,13.35
2023-05-02T08:03:22.170Z,13.61
2023-05-02T08:06:07.040Z,12.79
2023-05-02T08:08:51.980Z,12.22
2023-05-02T08:11:36.921Z,12.13
2023-05-02T08:14:21.959Z,12.34
2023-05-02T08:17:06.980Z,12.38
2023-05-02T08:19:51.933Z,12.41
2023-05-02T08:22:37.154Z,12.49
2023-05-02T08:25:22.124Z,12.07
2023-05-02T08:28:07.334Z,11.75
2023-05-02T08:30:52.298Z,12.18
2023-05-02T08:33:37.345Z,12.33
2023-05-02T08:36:22.406Z,12.84
2023-05-02T08:39:07.292Z,12.77
2023-05-02T08:41:52.357Z,13.18
2023-05-02T08:44:37.225Z,13.45
2023-05-02T08:47:22.299Z,13.36
2023-05-02T08:50:07.204Z,13.22
2023-05-02T08:52:52.235Z,13.27
2023-05-02T08:55:37.210Z,13.07
2023-05-02T08:58:22.228Z,12.85
2023-05-02T09:01:07.278Z,12.95
2023-05-02T09:03:52.230Z,12.98
2023-05-02T09:06:37.279Z,12.55
2023-05-02T09:09:22.096Z,12.48
2023-05-02T09:12:07.177Z,12.28
2023-05-02T09:14:52.169Z,12.40
2023-05-02T09:17:37.322Z,12.35
2023-05-02T09:20:22.413Z,12.54
2023-05-02T09:23:07.260Z,12.46
2023-05-02T09:25:52.243Z,12.17
2023-05-02T09:28:37.299Z,12.43
2023-05-02T09:31:37.628Z,12.37
2023-05-02T09:34:27.378Z,12.30
2023-05-02T09:37:12.343Z,12.18
2023-05-02T09:39:57.505Z,12.55
2023-05-02T09:42:42.506Z,12.75
2023-05-02T09:45:27.476Z,12.70
2023-05-02T09:48:12.367Z,13.27
2023-05-02T09:50:57.573Z,13.10
2023-05-02T09:53:42.493Z,13.29
2023-05-02T09:56:27.579Z,13.32
2023-05-02T09:59:12.642Z,13.37
2023-05-02T10:01:57.694Z,13.12
2023-05-02T10:04:42.843Z,13.04
2023-05-02T10:07:28.085Z,13.24
2023-05-02T10:10:13.087Z,13.51
2023-05-02T10:12:58.064Z,13.74
2023-05-02T10:15:43.183Z,13.72
2023-05-02T10:18:28.121Z,13.48
2023-05-02T10:21:13.113Z,13.70
2023-05-02T10:23:58.249Z,14.05
2023-05-02T10:26:43.073Z,14.11
2023-05-02T10:29:28.047Z,14.09
2023-05-02T10:32:12.970Z,14.07
2023-05-02T10:34:58.342Z,14.62
2023-05-02T10:37:43.186Z,14.86
2023-05-02T10:40:28.212Z,14.39
2023-05-02T10:43:13.267Z,14.26
2023-05-02T10:45:58.112Z,14.36
2023-05-02T10:48:43.232Z,14.49
2023-05-02T10:51:28.241Z,14.62
2023-05-02T10:54:13.349Z,14.48
2023-05-02T10:56:58.307Z,14.92
2023-05-02T10:59:43.312Z,14.91
2023-05-02T11:02:28.648Z,15.15
2023-05-02T11:05:13.314Z,15.19
2023-05-02T11:07:58.480Z,15.20
2023-05-02T11:10:43.569Z,15.28
2023-05-02T11:13:28.695Z,15.09
2023-05-02T11:16:13.777Z,15.04
2023-05-02T11:18:58.916Z,15.23
2023-05-02T11:21:43.792Z,15.29
2023-05-02T11:24:28.812Z,15.19
2023-05-02T11:27:13.835Z,15.38
2023-05-02T11:29:58.862Z,15.20
2023-05-02T11:32:43.946Z,15.59
2023-05-02T11:35:28.862Z,15.54
2023-05-02T11:38:13.963Z,15.62
2023-05-02T11:40:59.000Z,15.52
2023-05-02T11:43:44.029Z,15.33
2023-05-02T11:46:29.035Z,15.27
2023-05-02T11:49:15.172Z,15.42
2023-05-02T11:52:00.275Z,15.75
2023-05-02T11:54:45.320Z,15.68
2023-05-02T11:57:30.419Z,15.86
2023-05-02T12:00:15.404Z,15.68
2023-05-02T12:03:00.583Z,15.45
2023-05-02T12:05:45.517Z,15.59
2023-05-02T12:08:30.354Z,15.73
2023-05-02T12:11:15.431Z,15.88
2023-05-02T12:14:00.327Z,16.13
2023-05-02T12:16:45.438Z,16.23
2023-05-02T12:19:30.349Z,16.07
2023-05-02T12:22:15.475Z,15.99
2023-05-02T12:25:00.687Z,15.80
2023-05-02T12:27:45.657Z,15.76
2023-05-02T12:30:30.650Z,15.87
2023-05-02T12:33:15.697Z,15.64
2023-05-02T12:36:00.782Z,15.86
2023-05-02T12:38:45.659Z,16.09
2023-05-02T12:41:30.751Z,16.16
2023-05-02T12:44:15.864Z,16.08
2023-05-02T12:47:00.983Z,16.09
2023-05-02T12:49:45.947Z,16.23
2023-05-02T12:52:30.889Z,16.21
2023-05-02T12:55:16.047Z,16.19
2023-05-02T12:58:00.908Z,16.50
2023-05-02T13:00:47.800Z,16.32
2023-05-02T13:03:32.971Z,16.49
2023-05-02T13:06:17.974Z,16.66
2023-05-02T13:09:02.903Z,16.54
2023-05-02T13:11:47.635Z,16.58
2023-05-02T13:14:32.647Z,16.64
2023-05-02T13:17:17.866Z,16.96
2023-05-02T13:20:02.851Z,16.62
2023-05-02T13:22:47.820Z,16.85
2023-05-02T13:25:32.909Z,16.65
2023-05-02T13:28:17.818Z,16.67
2023-05-02T13:31:02.951Z,16.64
2023-05-02T13:33:47.929Z,16.60
2023-05-02T13:36:32.770Z,16.86
2023-05-02T13:39:17.889Z,16.82
2023-05-02T13:42:03.731Z,16.50
2023-05-02T13:44:50.231Z,16.48
2023-05-02T13:47:35.219Z,16.58
2023-05-02T13:50:20.179Z,16.46
2023-05-02T13:53:05.253Z,16.79
2023-05-02T13:55:50.220Z,16.49
2023-05-02T13:58:35.314Z,16.44
2023-05-02T14:01:20.302Z,16.41
2023-05-02T14:04:05.522Z,16.71
2023-05-02T14:06:50.448Z,16.88
2023-05-02T14:09:35.338Z,16.77
2023-05-02T14:12:20.397Z,16.71
2023-05-02T14:15:05.362Z,16.66
2023-05-02T14:17:50.449Z,16.84
2023-05-02T14:20:35.293Z,16.78
2023-05-02T14:23:20.411Z,16.65
2023-05-02T14:26:05.484Z,16.43
2023-05-02T14:28:50.287Z,16.29
2023-05-02T14:31:35.336Z,16.31
2023-05-02T14:34:20.263Z,16.28
2023-05-02T14:37:05.389Z,16.24
2023-05-02T14:39:51.692Z,16.45
2023-05-02T14:42:38.918Z,16.68
2023-05-02T14:45:23.937Z,16.53
2023-05-02T14:48:08.919Z,16.61
2023-05-02T14:50:53.910Z,16.56
2023-05-02T14:53:38.759Z,16.53
2023-05-02T14:56:23.811Z,16.32
2023-05-02T14:59:08.929Z,16.22
2023-05-02T15:01:53.798Z,16.13
2023-05-02T15:04:38.780Z,16.10
2023-05-02T15:07:23.970Z,16.06
2023-05-02T15:10:08.872Z,15.99
2023-05-02T15:12:53.807Z,15.76
2023-05-02T15:15:39.024Z,15.86
2023-05-02T15:18:24.040Z,16.00
2023-05-02T15:21:09.144Z,16.13
2023-05-02T15:23:53.975Z,16.17
2023-05-02T15:26:38.974Z,16.17
2023-05-02T15:29:23.780Z,16.04
2023-05-02T15:32:08.724Z,15.99
2023-05-02T15:34:53.686Z,15.89
2023-05-02T15:37:38.687Z,15.91
2023-05-02T15:40:23.668Z,15.87
2023-05-02T15:43:08.537Z,15.88
2023-05-02T15:45:53.501Z,15.81
2023-05-02T15:48:38.374Z,15.81
2023-05-02T15:51:23.311Z,15.74
2023-05-02T15:54:08.295Z,15.82
2023-05-02T15:56:53.316Z,15.91
2023-05-02T15:59:38.490Z,15.84
2023-05-02T16:02:23.514Z,15.84
2023-05-02T16:05:08.652Z,15.78
2023-05-02T16:07:53.666Z,15.78
2023-05-02T16:10:38.720Z,15.86
2023-05-02T16:13:23.584Z,15.99
2023-05-02T16:16:08.671Z,15.82
2023-05-02T16:18:53.660Z,15.82
2023-05-02T16:21:38.504Z,15.85
2023-05-02T16:24:23.692Z,15.95
2023-05-02T16:27:08.814Z,15.99
2023-05-02T16:29:53.998Z,16.12
2023-05-02T16:32:39.047Z,16.18
2023-05-02T16:35:24.028Z,16.29
2023-05-02T16:38:08.939Z,16.31
2023-05-02T16:40:53.987Z,16.33
2023-05-02T16:43:39.099Z,16.36
2023-05-02T16:46:24.072Z,16.38
2023-05-02T16:49:09.179Z,16.47
2023-05-02T16:51:54.032Z,16.47
2023-05-02T16:54:39.023Z,16.45
2023-05-02T16:57:23.859Z,16.44
2023-05-02T17:00:08.858Z,16.43
2023-05-02T17:02:53.964Z,16.43
2023-05-02T17:05:38.851Z,16.39
2023-05-02T17:08:23.963Z,16.40
2023-05-02T17:11:08.827Z,16.39
2023-05-02T17:13:53.784Z,16.30
2023-05-02T17:16:38.828Z,16.21
2023-05-02T17:19:23.948Z,16.13
2023-05-02T17:22:08.845Z,16.04
2023-05-02T17:24:53.913Z,16.03
2023-05-02T17:27:41.006Z,15.98
2023-05-02T17:30:25.729Z,15.98
2023-05-02T17:33:10.799Z,15.94
2023-05-02T17:35:55.675Z,15.88
2023-05-02T17:38:40.739Z,15.76
2023-05-02T17:41:25.660Z,15.73
2023-05-02T17:44:10.530Z,15.64
2023-05-02T17:46:55.859Z,15.62
2023-05-02T17:49:40.591Z,15.53
2023-05-02T17:52:25.703Z,15.48
2023-05-02T17:55:10.636Z,15.41
2023-05-02T17:57:55.776Z,15.35
2023-05-02T18:00:40.715Z,15.23
2023-05-02T18:03:25.826Z,15.07
2023-05-02T18:06:10.753Z,15.01
2023-05-02T18:08:55.433Z,14.91
2023-05-02T18:11:40.671Z,14.73
2023-05-02T18:14:25.527Z,14.62
2023-05-02T18:17:10.539Z,14.43
2023-05-02T18:19:55.517Z,14.25
2023-05-02T18:22:40.396Z,14.11
2023-05-02T18:25:25.328Z,13.97
2023-05-02T18:28:10.342Z,13.96
2023-05-02T18:30:55.371Z,13.83
2023-05-02T18:33:40.221Z,13.69
2023-05-02T18:36:25.368Z,13.66
2023-05-02T18:39:10.339Z,13.59
2023-05-02T18:41:55.359Z,13.57
2023-05-02T18:44:40.200Z,13.46
2023-05-02T18:47:25.166Z,13.41
2023-05-02T18:50:10.043Z,13.31
2023-05-02T18:52:55.166Z,13.27
2023-05-02T18:55:40.188Z,13.14
2023-05-02T18:58:25.063Z,13.00
2023-05-02T19:01:10.183Z,13.03
2023-05-02T19:03:55.134Z,12.96
2023-05-02T19:06:40.228Z,12.91
2023-05-02T19:09:25.135Z,12.93
2023-05-02T19:12:10.176Z,12.89
2023-05-02T19:14:55.229Z,12.85
2023-05-02T19:17:40.251Z,12.82
2023-05-02T19:20:25.132Z,12.75
2023-05-02T19:23:19.699Z,12.73
2023-05-02T19:26:05.080Z,12.63
2023-05-02T19:28:50.203Z,12.57
2023-05-02T19:31:35.291Z,12.47
2023-05-02T19:34:20.243Z,12.44
2023-05-02T19:37:05.183Z,12.38
2023-05-02T19:39:50.267Z,12.26
2023-05-02T19:42:35.320Z,12.25
2023-05-02T19:45:20.252Z,12.22
2023-05-02T19:48:05.437Z,12.10
2023-05-02T19:50:50.322Z,12.08
2023-05-02T19:53:35.354Z,12.01
2023-05-02T19:56:20.385Z,12.01
2023-05-02T19:59:05.212Z,12.00
2023-05-02T20:01:50.241Z,11.98
2023-05-02T20:04:35.124Z,11.94
2023-05-02T20:07:20.178Z,11.88
2023-05-02T20:10:05.326Z,11.86
2023-05-02T20:12:50.215Z,11.72
2023-05-02T20:15:35.211Z,11.65
2023-05-02T20:18:20.160Z,11.61
2023-05-02T20:21:05.157Z,11.71
2023-05-02T20:23:50.090Z,11.69
2023-05-02T20:26:35.227Z,11.67
2023-05-02T20:29:20.166Z,11.62
2023-05-02T20:32:05.235Z,11.61
2023-05-02T20:34:50.181Z,11.55
2023-05-02T20:37:35.314Z,11.50
2023-05-02T20:40:20.248Z,11.42
2023-05-02T20:43:05.313Z,11.37
2023-05-02T20:45:50.309Z,11.34
2023-05-02T20:48:35.194Z,11.29
2023-05-02T20:51:20.256Z,11.27
2023-05-02T20:54:05.174Z,11.24
2023-05-02T20:56:50.216Z,11.11
2023-05-02T20:59:35.022Z,11.08
2023-05-02T21:02:20.143Z,11.07
2023-05-02T21:05:05.116Z,11.06
2023-05-02T21:07:50.025Z,11.04
2023-05-02T21:10:35.160Z,11.04
2023-05-02T21:13:20.194Z,11.03
2023-05-02T21:16:05.298Z,10.94
2023-05-02T21:18:50.112Z,10.98
2023-05-02T21:21:35.186Z,10.96
2023-05-02T21:24:20.031Z,10.86
2023-05-02T21:27:05.178Z,10.86
2023-05-02T21:29:50.210Z,10.84
2023-05-02T21:32:35.145Z,10.80
2023-05-02T21:35:20.125Z,10.81
2023-05-02T21:38:05.117Z,10.72
2023-05-02T21:40:50.076Z,10.69
2023-05-02T21:43:35.028Z,10.69
2023-05-02T21:46:20.222Z,10.67
2023-05-02T21:49:05.060Z,10.66
2023-05-02T21:51:50.097Z,10.68
2023-05-02T21:54:35.136Z,10.63
2023-05-02T21:57:20.106Z,10.59
2023-05-02T22:00:05.456Z,10.55
2023-05-02T22:02:50.847Z,10.50
2023-05-02T22:05:35.611Z,10.50
2023-05-02T22:08:20.599Z,10.46
2023-05-02T22:11:05.668Z,10.38
2023-05-02T22:13:50.671Z,10.38
2023-05-02T22:16:35.628Z,10.33
2023-05-02T22:19:20.732Z,10.30
2023-05-02T22:22:05.813Z,10.24
2023-05-02T22:24:51.029Z,10.24
2023-05-02T22:27:35.952Z,10.21
2023-05-02T22:30:21.034Z,10.18
2023-05-02T22:33:05.976Z,10.15
2023-05-02T22:35:50.921Z,10.15
2023-05-02T22:38:35.947Z,10.09
2023-05-02T22:41:20.906Z,10.11
2023-05-02T22:44:06.180Z,10.06
2023-05-02T22:46:51.229Z,10.04
2023-05-02T22:49:35.976Z,10.02
2023-05-02T22:52:21.002Z,9.99
2023-05-02T22:55:06.055Z,10.02
2023-05-02T22:57:51.072Z,9.94
2023-05-02T23:00:36.071Z,9.95
2023-05-02T23:03:21.169Z,9.95
2023-05-02T23:06:05.908Z,9.90
2023-05-02T23:08:50.926Z,9.85
2023-05-02T23:11:35.814Z,9.84
2023-05-02T23:14:20.812Z,9.79
2023-05-02T23:17:05.620Z,9.79
2023-05-02T23:19:50.712Z,9.76
2023-05-02T23:22:35.566Z,9.73
2023-05-02T23:25:20.665Z,9.74
2023-05-02T23:28:07.683Z,9.74
2023-05-02T23:30:52.622Z,9.70
2023-05-02T23:33:37.713Z,9.67
2023-05-02T23:36:22.581Z,9.67
2023-05-02T23:39:07.528Z,9.63
2023-05-02T23:41:52.639Z,9.62
2023-05-02T23:44:37.582Z,9.60
2023-05-02T23:47:22.745Z,9.64
2023-05-02T23:50:07.664Z,9.59
2023-05-02T23:52:52.709Z,9.59
2023-05-02T23:55:37.679Z,9.53
2023-05-02T23:58:22.622Z,9.52
